Time;durP1;ratioP1;P1;durP2;ratioP2;P2;SDS_P1;SDS_P2;PMS_P1;PMS_P2;Temp;Humidity;BMP_temperature;BMP_pressure;BME280_temperature;BME280_humidity;BME280_pressure;Samples;Min_cycle;Max_cycle;Signal;HPM_P1;HPM_P2
2022/08/07 00:00:52;;;;;;;3.05;0.90;;;;;;;18.97;51.18;100555.31;4898831;29;20028;-80
2022/08/07 00:03:17;;;;;;;2.15;0.68;;;;;;;18.98;51.85;100576.78;4897704;29;20571;-80
2022/08/07 00:05:43;;;;;;;3.92;1.02;;;;;;;18.92;51.12;100576.28;4881889;29;20032;-80
2022/08/07 00:08:08;;;;;;;1.15;0.68;;;;;;;18.79;51.21;100564.47;4880710;29;20685;-80
2022/08/07 00:10:34;;;;;;;3.08;0.82;;;;;;;18.76;51.46;100564.63;4880621;29;20168;-80
2022/08/07 00:13:02;;;;;;;1.70;0.82;;;;;;;18.85;51.55;100591.03;4882827;29;20056;-79
2022/08/07 00:15:29;;;;;;;2.85;1.00;;;;;;;18.79;51.32;100586.00;4881390;29;20433;-80
2022/08/07 00:17:55;;;;;;;3.75;1.00;;;;;;;18.75;50.98;100581.75;4898274;29;20041;-79
2022/08/07 00:20:21;;;;;;;1.85;0.70;;;;;;;18.65;51.47;100564.38;4880101;29;20075;-80
2022/08/07 00:22:47;;;;;;;2.45;0.70;;;;;;;18.62;51.63;100561.84;4895972;29;20050;-80
2022/08/07 00:25:12;;;;;;;1.25;0.70;;;;;;;18.67;51.97;100576.81;4880041;29;20060;-79
2022/08/07 00:27:38;;;;;;;1.00;0.70;;;;;;;18.54;51.45;100556.91;4896815;29;20029;-79
2022/08/07 00:30:04;;;;;;;2.35;0.70;;;;;;;18.59;52.52;100570.09;4896750;29;20413;-80
2022/08/07 00:32:29;;;;;;;2.88;0.73;;;;;;;18.58;51.90;100560.28;4880456;29;20034;-80
2022/08/07 00:34:56;;;;;;;2.00;0.70;;;;;;;18.46;52.09;100555.59;4897217;29;20092;-80
2022/08/07 00:37:23;;;;;;;0.70;0.60;;;;;;;18.40;53.51;100537.09;4880042;29;20028;-80
2022/08/07 00:39:49;;;;;;;2.28;0.68;;;;;;;18.50;52.15;100549.09;4879736;29;20055;-80
2022/08/07 00:42:15;;;;;;;3.10;0.70;;;;;;;18.45;52.10;100551.16;4897161;29;20112;-79
2022/08/07 00:44:40;;;;;;;2.53;0.63;;;;;;;18.50;52.64;100555.31;4896785;29;20088;-80
2022/08/07 00:47:07;;;;;;;2.20;0.73;;;;;;;18.48;51.89;100549.19;4879865;29;20059;-80
2022/08/07 00:49:33;;;;;;;2.38;0.60;;;;;;;18.32;52.59;100537.47;4897335;29;20025;-80
2022/08/07 00:51:58;;;;;;;1.65;0.60;;;;;;;18.32;52.27;100537.47;4897480;29;20033;-79
2022/08/07 00:54:24;;;;;;;2.92;0.63;;;;;;;18.42;51.67;100551.34;4881003;29;20703;-80
2022/08/07 00:56:50;;;;;;;0.77;0.68;;;;;;;18.44;51.88;100557.50;4881029;29;20024;-79
2022/08/07 00:59:17;;;;;;;1.92;0.73;;;;;;;18.40;52.63;100555.94;4879126;29;20125;-79
2022/08/07 01:01:43;;;;;;;0.80;0.50;;;;;;;18.38;51.89;100556.84;4880319;29;20487;-79
2022/08/07 01:04:08;;;;;;;1.50;0.50;;;;;;;18.40;51.85;100550.56;4896864;29;20029;-80
2022/08/07 01:06:34;;;;;;;2.92;0.90;;;;;;;18.35;52.24;100557.03;4879885;29;20040;-80
2022/08/07 01:09:01;;;;;;;1.25;0.52;;;;;;;18.26;52.06;100538.69;4879806;29;20052;-79
2022/08/07 01:11:28;;;;;;;0.50;0.40;;;;;;;18.29;52.13;100552.00;4898078;29;20040;-80
2022/08/07 01:13:54;;;;;;;4.35;0.63;;;;;;;18.14;52.41;100528.59;4897712;29;20080;-80
2022/08/07 01:16:19;;;;;;;1.40;0.50;;;;;;;18.18;52.43;100532.00;4897729;29;20028;-80
2022/08/07 01:18:45;;;;;;;1.40;0.65;;;;;;;18.24;52.87;100542.41;4880182;29;20600;-79
2022/08/07 01:21:23;;;;;;;3.28;0.60;;;;;;;18.22;53.11;100563.16;4896397;29;20032;-80
2022/08/07 01:23:50;;;;;;;1.10;0.70;;;;;;;18.19;52.73;100553.44;4897481;29;20496;-79
2022/08/07 01:26:19;;;;;;;2.45;0.60;;;;;;;18.09;52.42;100535.19;4897588;29;20096;-80
2022/08/07 01:28:47;;;;;;;4.03;0.70;;;;;;;18.13;52.85;100548.41;4896759;29;20045;-80
2022/08/07 01:31:14;;;;;;;1.83;0.60;;;;;;;18.11;53.94;100547.63;4879870;29;20059;-79
2022/08/07 01:33:40;;;;;;;4.00;0.77;;;;;;;17.97;53.48;100536.72;4897109;29;20104;-80
2022/08/07 01:36:08;;;;;;;3.85;0.60;;;;;;;17.86;53.42;100527.47;4895377;29;20029;-79
2022/08/07 01:38:34;;;;;;;2.75;0.93;;;;;;;17.87;53.46;100538.19;4879001;29;20055;-80
2022/08/07 01:41:02;;;;;;;5.72;1.02;;;;;;;17.80;54.31;100552.94;4878430;29;20080;-80
2022/08/07 01:43:30;;;;;;;2.03;0.85;;;;;;;17.80;55.26;100560.13;4879132;29;20048;-80
2022/08/07 01:45:56;;;;;;;10.25;1.17;;;;;;;17.68;54.68;100540.13;4896198;29;20032;-79
2022/08/07 01:48:23;;;;;;;1.52;0.70;;;;;;;17.73;54.73;100559.56;4896019;29;20038;-79
2022/08/07 01:50:54;;;;;;;1.02;0.82;;;;;;;17.62;55.49;100529.69;4895540;29;20040;-79
2022/08/07 01:53:22;;;;;;;1.23;0.70;;;;;;;17.64;55.16;100538.56;4895767;29;20115;-79
2022/08/07 01:55:54;;;;;;;1.70;0.80;;;;;;;17.63;54.99;100538.59;4878532;29;20027;-79
2022/08/07 01:58:22;;;;;;;1.27;0.73;;;;;;;17.66;55.50;100547.38;4896597;29;20100;-80
2022/08/07 02:00:54;;;;;;;2.22;0.80;;;;;;;17.54;55.40;100531.91;4880530;29;20512;-80
2022/08/07 02:03:22;;;;;;;1.48;0.85;;;;;;;17.64;55.89;100540.38;4894088;29;20488;-78
2022/08/07 02:05:57;;;;;;;2.30;0.70;;;;;;;17.57;56.33;100530.88;4895943;29;20032;-79
2022/08/07 02:08:25;;;;;;;1.35;1.00;;;;;;;17.55;56.22;100527.38;4878818;29;20021;-80
2022/08/07 02:10:53;;;;;;;1.92;0.80;;;;;;;17.59;55.96;100537.06;4896008;29;20026;-80
2022/08/07 02:13:25;;;;;;;1.05;0.77;;;;;;;17.54;56.55;100531.03;4877498;29;20485;-80
2022/08/07 02:15:51;;;;;;;2.53;0.80;;;;;;;17.54;56.85;100542.69;4891629;29;20073;-80
2022/08/07 02:18:19;;;;;;;3.92;0.82;;;;;;;17.52;56.54;100528.44;4894937;29;20021;-79
2022/08/07 02:20:47;;;;;;;2.13;0.73;;;;;;;17.44;57.46;100536.00;4877535;29;20036;-79
2022/08/07 02:23:15;;;;;;;2.05;0.90;;;;;;;17.40;57.26;100539.78;4878324;29;20032;-80
2022/08/07 02:25:42;;;;;;;1.30;0.80;;;;;;;17.30;57.58;100514.31;4877933;29;20033;-80
2022/08/07 02:28:09;;;;;;;2.28;0.70;;;;;;;17.22;57.78;100508.47;4878014;29;20464;-80
2022/08/07 02:30:37;;;;;;;5.22;0.80;;;;;;;17.30;58.07;100519.72;4895013;29;20071;-80
2022/08/07 02:33:04;;;;;;;4.40;0.90;;;;;;;17.38;58.54;100530.09;4894993;29;20068;-80
2022/08/07 02:35:33;;;;;;;2.63;0.73;;;;;;;17.34;58.27;100518.59;4912026;29;20054;-80
2022/08/07 02:38:01;;;;;;;2.28;0.80;;;;;;;17.12;58.01;100496.47;4914596;29;20032;-79
2022/08/07 02:40:28;;;;;;;3.78;0.80;;;;;;;17.10;58.54;100503.72;4914375;29;20103;-79
2022/08/07 02:42:56;;;;;;;0.80;0.68;;;;;;;17.15;58.40;100511.59;4915119;29;20039;-80
2022/08/07 02:45:25;;;;;;;1.05;0.73;;;;;;;17.23;58.16;100521.00;4912120;29;20032;-80
2022/08/07 02:47:51;;;;;;;2.08;1.17;;;;;;;17.12;58.88;100491.09;4895938;29;20540;-80
2022/08/07 02:50:16;;;;;;;2.70;0.90;;;;;;;16.97;58.71;100475.75;4895223;29;20037;-79
2022/08/07 02:52:46;;;;;;;2.05;0.90;;;;;;;17.01;58.38;100497.03;4894130;29;20074;-80
2022/08/07 02:55:21;;;;;;;2.95;0.60;;;;;;;16.97;58.55;100487.38;4894990;29;20032;-79
2022/08/07 02:57:48;;;;;;;3.03;0.85;;;;;;;16.97;58.44;100486.50;4893087;29;20033;-79
2022/08/07 03:00:14;;;;;;;0.80;0.60;;;;;;;16.89;59.20;100477.97;4893122;29;20111;-79
2022/08/07 03:02:44;;;;;;;3.38;1.77;;;;;;;16.91;58.30;100476.06;4895054;29;20536;-79
2022/08/07 03:05:10;;;;;;;1.33;0.80;;;;;;;16.88;59.46;100492.34;4894428;29;20029;-80
2022/08/07 03:07:37;;;;;;;1.52;0.70;;;;;;;16.81;58.99;100491.78;4895507;29;20554;-79
2022/08/07 03:10:04;;;;;;;1.88;0.70;;;;;;;16.84;59.27;100490.75;4895209;29;20469;-80
2022/08/07 03:12:31;;;;;;;0.90;0.63;;;;;;;16.81;59.38;100488.22;4894542;29;20056;-80
2022/08/07 03:14:57;;;;;;;2.25;0.73;;;;;;;16.84;59.92;100502.38;4897034;29;20774;-79
2022/08/07 03:17:23;;;;;;;1.38;0.70;;;;;;;16.85;60.18;100503.25;4882272;29;20044;-80
2022/08/07 03:19:50;;;;;;;0.68;0.68;;;;;;;16.80;60.20;100497.25;4881105;29;20032;-79
2022/08/07 03:22:16;;;;;;;3.28;1.15;;;;;;;16.81;60.01;100498.97;4880581;29;20487;-79
2022/08/07 03:24:41;;;;;;;3.25;0.70;;;;;;;16.75;60.38;100485.84;4897625;29;20029;-80
2022/08/07 03:27:08;;;;;;;1.17;0.75;;;;;;;16.83;60.59;100506.03;4880547;29;20039;-80
2022/08/07 03:29:38;;;;;;;2.03;1.10;;;;;;;16.91;60.17;100513.69;4880714;29;20025;-79
2022/08/07 03:32:07;;;;;;;6.43;0.93;;;;;;;16.91;59.53;100514.56;4878235;29;20033;-79
2022/08/07 03:34:34;;;;;;;2.15;0.88;;;;;;;16.91;60.36;100513.69;4888202;29;20028;-80
2022/08/07 03:37:02;;;;;;;1.13;0.60;;;;;;;16.86;60.03;100505.00;4882168;29;20036;-80
2022/08/07 03:39:32;;;;;;;8.57;1.13;;;;;;;16.75;59.88;100475.13;4898535;29;20370;-80
2022/08/07 03:41:58;;;;;;;2.17;0.95;;;;;;;16.93;60.16;100506.44;4899120;29;20115;-79
2022/08/07 03:44:25;;;;;;;1.75;0.73;;;;;;;16.88;60.58;100498.59;4899113;29;20035;-80
2022/08/07 03:46:50;;;;;;;6.30;1.65;;;;;;;16.90;59.78;100495.84;4898798;29;20207;-79
2022/08/07 03:49:16;;;;;;;4.50;1.10;;;;;;;17.00;60.01;100507.88;4898771;29;20075;-79
2022/08/07 03:51:42;;;;;;;2.05;0.80;;;;;;;16.93;60.03;100499.22;4898423;29;20374;-80
2022/08/07 03:54:08;;;;;;;2.05;0.95;;;;;;;17.00;59.73;100510.56;4898706;29;20476;-80
2022/08/07 03:56:36;;;;;;;1.15;0.85;;;;;;;16.87;60.72;100487.91;4898908;29;20032;-81
2022/08/07 03:59:03;;;;;;;2.28;0.85;;;;;;;16.90;60.85;100490.47;4898504;29;20043;-80
2022/08/07 04:01:29;;;;;;;2.55;0.90;;;;;;;16.95;60.96;100505.38;4897130;29;20029;-79
2022/08/07 04:03:55;;;;;;;2.22;1.00;;;;;;;16.71;60.90;100479.75;4880865;29;20111;-80
2022/08/07 04:06:21;;;;;;;1.35;0.90;;;;;;;16.89;61.67;100515.56;4881451;29;20115;-80
2022/08/07 04:08:46;;;;;;;1.48;0.80;;;;;;;16.81;61.17;100517.78;4880939;29;20051;-79
2022/08/07 04:11:12;;;;;;;2.40;1.00;;;;;;;16.83;61.74;100511.41;4897513;29;20028;-79
2022/08/07 04:13:38;;;;;;;1.33;0.85;;;;;;;16.84;61.70;100518.50;4897452;29;20444;-80
2022/08/07 04:16:05;;;;;;;1.55;0.80;;;;;;;16.65;61.00;100492.63;4897170;29;20484;-81
2022/08/07 04:18:30;;;;;;;4.82;1.17;;;;;;;16.86;61.28;100526.47;4880773;29;20564;-77
2022/08/07 04:20:56;;;;;;;2.85;1.10;;;;;;;16.75;60.97;100491.22;4896135;29;20025;-78
2022/08/07 04:23:24;;;;;;;1.17;0.90;;;;;;;16.76;61.91;100503.72;4897410;29;20493;-78
2022/08/07 04:25:50;;;;;;;4.38;1.25;;;;;;;16.85;61.02;100514.00;4895948;29;20092;-79
2022/08/07 04:28:16;;;;;;;7.22;1.63;;;;;;;16.78;61.67;100513.44;4897682;29;20037;-79
2022/08/07 04:30:45;;;;;;;2.38;1.00;;;;;;;16.75;61.44;100512.72;4896153;29;20087;-79
2022/08/07 04:33:12;;;;;;;3.45;1.10;;;;;;;16.70;61.86;100495.97;4897085;29;20020;-78
2022/08/07 04:35:38;;;;;;;3.17;0.95;;;;;;;16.70;61.11;100490.59;4881385;29;20033;-79
2022/08/07 04:38:07;;;;;;;2.13;1.15;;;;;;;16.83;61.39;100515.91;4897974;29;20032;-79
2022/08/07 04:40:37;;;;;;;2.17;1.02;;;;;;;16.74;61.55;100510.97;4896135;29;20033;-79
2022/08/07 04:43:03;;;;;;;1.90;1.00;;;;;;;16.89;61.76;100537.06;4896310;29;20040;-80
2022/08/07 04:45:39;;;;;;;1.63;0.85;;;;;;;16.70;61.17;100495.97;4879809;29;20032;-79
2022/08/07 04:48:14;;;;;;;13.55;2.17;;;;;;;16.89;62.10;100526.31;4879764;29;20032;-80
2022/08/07 04:50:55;;;;;;;1.85;0.90;;;;;;;16.90;61.71;100528.09;4896191;29;20477;-80
2022/08/07 04:53:30;;;;;;;19.15;2.55;;;;;;;16.97;61.54;100540.25;4897076;29;20028;-80
2022/08/07 04:56:10;;;;;;;7.35;0.90;;;;;;;16.95;60.76;100547.53;4879648;29;20035;-80
2022/08/07 04:59:10;;;;;;;3.17;1.17;;;;;;;17.03;60.84;100542.66;4880140;29;20036;-79
2022/08/07 05:01:43;;;;;;;4.32;0.80;;;;;;;17.10;60.95;100535.97;4886277;29;20079;-79
2022/08/07 05:04:13;;;;;;;;;;;;;;;17.20;60.98;100541.78;4881319;29;20032;-79
2022/08/07 05:07:05;;;;;;;2.58;0.75;;;;;;;17.29;60.97;100549.38;4897108;29;20391;-79
2022/08/07 05:10:06;;;;;;;1.35;1.10;;;;;;;17.31;60.01;100532.22;4880408;29;20104;-80
2022/08/07 05:13:15;;;;;;;1.20;0.68;;;;;;;17.46;59.89;100539.50;4870089;29;20084;-79
2022/08/07 05:15:48;;;;;;;1.92;1.02;;;;;;;17.52;59.45;100532.94;4836267;29;20044;-79
2022/08/07 05:18:26;;;;;;;2.13;0.80;;;;;;;17.67;58.43;100543.78;4897136;29;20072;-79
2022/08/07 05:21:03;;;;;;;2.53;0.70;;;;;;;17.82;58.63;100542.97;4896362;29;20032;-78
2022/08/07 05:23:38;;;;;;;6.53;1.27;;;;;;;17.88;58.57;100544.44;4895742;29;20036;-79
2022/08/07 05:26:06;;;;;;;1.30;0.68;;;;;;;17.99;57.80;100544.75;4896020;29;20094;-79
2022/08/07 05:28:33;;;;;;;0.77;0.65;;;;;;;18.05;57.39;100549.78;4878763;29;20020;-79
2022/08/07 05:31:01;;;;;;;3.97;0.82;;;;;;;18.18;56.84;100557.09;4878520;29;20115;-78
2022/08/07 05:33:29;;;;;;;2.67;0.90;;;;;;;18.28;56.70;100552.06;4895931;29;20025;-79
2022/08/07 05:35:55;;;;;;;1.38;0.68;;;;;;;18.23;56.78;100533.47;4896684;29;20025;-79
2022/08/07 05:38:21;;;;;;;0.88;0.70;;;;;;;18.28;56.31;100517.94;4896122;29;20036;-80
2022/08/07 05:40:48;;;;;;;0.95;0.80;;;;;;;18.53;55.32;100533.63;4880349;29;20505;-78
2022/08/07 05:43:14;;;;;;;1.58;0.70;;;;;;;18.99;55.02;100556.09;4896471;29;20033;-79
2022/08/07 05:45:42;;;;;;;2.42;0.70;;;;;;;19.16;53.00;100561.38;4896409;29;20029;-79
2022/08/07 05:48:07;;;;;;;1.83;0.75;;;;;;;19.14;53.87;100556.03;4879631;29;20028;-79
2022/08/07 05:50:34;;;;;;;3.97;1.27;;;;;;;19.16;53.68;100575.69;4896437;29;20036;-78
2022/08/07 05:53:00;;;;;;;3.17;1.33;;;;;;;19.11;53.46;100563.47;4879018;29;20025;-78
2022/08/07 05:55:27;;;;;;;2.13;0.85;;;;;;;19.24;53.88;100572.56;4896186;29;20028;-79
2022/08/07 05:57:53;;;;;;;1.17;0.60;;;;;;;19.29;53.37;100573.22;4896248;29;20032;-79
2022/08/07 06:00:20;;;;;;;1.00;0.50;;;;;;;19.31;53.46;100558.66;4878866;29;20036;-79
2022/08/07 06:02:50;;;;;;;0.95;0.60;;;;;;;19.69;52.06;100583.31;4879156;29;20167;-79
2022/08/07 06:05:16;;;;;;;2.75;0.55;;;;;;;19.76;51.85;100567.63;4896302;29;20508;-79
2022/08/07 06:07:43;;;;;;;2.42;0.77;;;;;;;19.96;51.85;100578.06;4895503;29;20380;-78
2022/08/07 06:10:10;;;;;;;2.42;0.65;;;;;;;19.91;51.49;100564.84;4894880;29;20053;-79
2022/08/07 06:12:36;;;;;;;1.20;0.90;;;;;;;19.86;51.48;100566.09;4894495;29;20032;-79
2022/08/07 06:15:02;;;;;;;0.70;0.60;;;;;;;19.99;51.51;100589.53;4895162;29;20024;-79
2022/08/07 06:17:29;;;;;;;2.60;0.65;;;;;;;20.02;52.39;100575.84;4877988;29;20029;-79
2022/08/07 06:19:56;;;;;;;4.00;0.80;;;;;;;20.23;51.25;100596.13;4894941;29;20793;-79
2022/08/07 06:22:23;;;;;;;1.42;0.68;;;;;;;20.38;50.23;100597.88;4875253;29;20028;-78
2022/08/07 06:24:49;;;;;;;1.27;0.50;;;;;;;20.48;50.63;100572.00;4891486;29;20035;-79
2022/08/07 06:27:22;;;;;;;3.33;0.60;;;;;;;20.69;50.74;100597.66;4895747;29;20401;-79
2022/08/07 06:29:48;;;;;;;2.38;0.47;;;;;;;20.74;49.34;100584.69;4878524;29;20033;-79
2022/08/07 06:32:13;;;;;;;1.30;0.63;;;;;;;20.88;49.84;100592.78;4896462;29;20111;-79
2022/08/07 06:34:39;;;;;;;1.25;0.60;;;;;;;21.03;50.29;100573.84;4878162;29;20060;-78
2022/08/07 06:37:04;;;;;;;1.13;0.60;;;;;;;21.11;47.80;100583.19;4878909;29;20119;-79
2022/08/07 06:39:31;;;;;;;0.50;0.50;;;;;;;21.13;48.84;100581.25;4877300;29;20106;-78
2022/08/07 06:42:10;;;;;;;0.80;0.60;;;;;;;21.14;48.93;100571.28;4877321;29;20033;-78
2022/08/07 06:44:37;;;;;;;0.70;0.60;;;;;;;21.40;49.02;100594.75;4861002;29;20462;-79
2022/08/07 06:47:03;;;;;;;1.65;0.45;;;;;;;21.63;48.07;100602.19;4875773;29;20110;-79
2022/08/07 06:49:28;;;;;;;1.23;0.68;;;;;;;21.74;48.07;100596.88;4879655;29;20028;-79
2022/08/07 06:51:55;;;;;;;1.35;0.70;;;;;;;21.94;47.91;100591.84;4882419;29;20504;-78
2022/08/07 06:54:25;;;;;;;1.45;0.60;;;;;;;21.89;47.50;100571.47;4881636;29;20504;-79
2022/08/07 06:56:53;;;;;;;2.60;0.85;;;;;;;21.95;46.73;100557.50;4881545;29;20157;-79
2022/08/07 06:59:28;;;;;;;4.25;0.70;;;;;;;22.25;46.95;100590.56;4880835;29;20097;-79
2022/08/07 07:01:56;;;;;;;1.88;0.85;;;;;;;22.31;46.44;100581.97;4864290;29;20033;-79
2022/08/07 07:04:23;;;;;;;1.85;0.70;;;;;;;22.36;45.49;100581.63;4872931;29;20389;-78
2022/08/07 07:06:48;;;;;;;0.93;0.60;;;;;;;22.51;45.70;100583.22;4883377;29;20395;-78
2022/08/07 07:09:25;;;;;;;3.63;1.02;;;;;;;22.66;44.88;100569.47;4899135;29;20116;-79
2022/08/07 07:12:12;;;;;;;3.70;0.68;;;;;;;23.03;44.82;100595.59;4898733;29;20028;-79
2022/08/07 07:14:48;;;;;;;2.90;0.77;;;;;;;23.18;44.20;100571.88;4899764;29;20029;-78
2022/08/07 07:17:21;;;;;;;3.30;0.85;;;;;;;23.47;44.98;100575.13;4899832;29;20020;-79
2022/08/07 07:19:52;;;;;;;5.32;1.63;;;;;;;23.66;43.35;100557.28;4882491;29;20484;-79
2022/08/07 07:22:18;;;;;;;4.53;0.85;;;;;;;24.07;43.75;100581.25;4900120;29;20092;-79
2022/08/07 07:24:46;;;;;;;1.73;0.60;;;;;;;24.47;43.15;100566.19;4899670;29;20025;-78
2022/08/07 07:27:15;;;;;;;1.40;0.70;;;;;;;24.89;42.68;100584.47;4899404;29;20556;-79
2022/08/07 07:29:46;;;;;;;1.50;0.70;;;;;;;24.95;41.29;100583.97;4899315;29;20017;-78
2022/08/07 07:32:15;;;;;;;1.98;1.10;;;;;;;24.74;40.90;100523.16;4900063;29;20033;-77
2022/08/07 07:34:54;;;;;;;1.23;0.60;;;;;;;25.26;40.56;100561.34;4899489;29;20032;-78
2022/08/07 07:37:22;;;;;;;1.55;0.80;;;;;;;25.49;40.77;100576.63;4881493;29;20032;-78
2022/08/07 07:39:51;;;;;;;4.80;0.90;;;;;;;25.57;40.61;100562.34;4898968;29;20028;-80
2022/08/07 07:42:17;;;;;;;2.20;0.68;;;;;;;25.81;39.77;100574.72;4899568;29;20036;-80
2022/08/07 07:44:45;;;;;;;2.05;1.00;;;;;;;26.18;40.12;100566.94;4898599;29;20560;-79
2022/08/07 07:47:13;;;;;;;1.83;0.73;;;;;;;26.46;39.15;100559.91;4881314;29;20024;-79
2022/08/07 07:49:40;;;;;;;3.05;0.82;;;;;;;26.74;39.51;100576.41;4898277;29;20109;-80
2022/08/07 07:52:07;;;;;;;4.90;0.95;;;;;;;27.08;39.49;100568.75;4897727;29;20033;-80
2022/08/07 07:54:34;;;;;;;1.30;0.85;;;;;;;27.25;38.19;100564.47;4896925;29;20083;-80
2022/08/07 07:57:01;;;;;;;1.70;0.88;;;;;;;27.44;38.35;100559.03;4898133;29;20044;-79
2022/08/07 07:59:29;;;;;;;2.13;0.90;;;;;;;27.51;37.19;100571.13;4898105;29;20021;-79
2022/08/07 08:01:55;;;;;;;3.03;0.75;;;;;;;27.70;38.74;100565.63;4881579;29;20047;-80
2022/08/07 08:04:23;;;;;;;5.43;0.98;;;;;;;27.83;37.12;100580.72;4906261;29;20051;-79
2022/08/07 08:06:49;;;;;;;1.52;0.77;;;;;;;27.91;37.63;100552.69;4912486;29;20476;-79
2022/08/07 08:09:19;;;;;;;2.30;0.80;;;;;;;28.20;37.75;100568.00;4906266;29;20262;-79
2022/08/07 08:11:45;;;;;;;2.17;0.90;;;;;;;28.41;37.17;100556.84;4917694;29;20539;-79
2022/08/07 08:14:10;;;;;;;2.88;1.05;;;;;;;28.48;37.10;100551.66;4913382;29;20099;-79
2022/08/07 08:16:38;;;;;;;2.25;0.80;;;;;;;28.56;36.46;100560.00;4882817;29;20400;-80
2022/08/07 08:19:07;;;;;;;1.70;0.80;;;;;;;28.53;37.11;100552.09;4899486;29;20211;-79
2022/08/07 08:27:08;;;;;;;2.15;0.80;;;;;;;29.47;36.22;100542.38;4897579;29;20071;-80
2022/08/07 08:29:45;;;;;;;2.10;0.77;;;;;;;29.71;35.90;100549.13;4881172;29;20112;-80
2022/08/07 08:32:16;;;;;;;2.35;0.80;;;;;;;29.60;35.17;100542.00;4895167;29;20039;-80
2022/08/07 08:34:44;;;;;;;2.70;0.85;;;;;;;30.00;35.51;100539.59;4897934;29;20040;-79
2022/08/07 08:37:12;;;;;;;2.42;1.00;;;;;;;30.27;36.07;100541.34;4880684;29;20064;-79
2022/08/07 08:39:39;;;;;;;2.75;0.93;;;;;;;30.25;35.18;100525.03;4897706;29;20512;-80
2022/08/07 08:42:16;;;;;;;2.85;0.93;;;;;;;30.28;35.49;100537.59;4882171;29;20131;-79
2022/08/07 08:44:53;;;;;;;4.18;0.90;;;;;;;29.73;35.42;100528.78;4881352;29;20032;-80
2022/08/07 08:47:31;;;;;;;2.08;0.98;;;;;;;29.62;35.39;100510.66;4895759;29;20060;-80
2022/08/07 08:50:16;;;;;;;2.03;0.95;;;;;;;30.08;35.68;100512.22;4896923;29;20039;-79
2022/08/07 08:53:12;;;;;;;2.05;0.95;;;;;;;30.44;35.14;100533.06;4897588;29;20607;-80
2022/08/07 08:55:51;;;;;;;1.70;0.90;;;;;;;30.55;34.52;100524.50;4895164;29;20040;-79
2022/08/07 08:58:30;;;;;;;1.58;0.90;;;;;;;30.56;35.71;100534.47;4895489;29;20056;-79
2022/08/07 09:01:22;;;;;;;1.67;0.85;;;;;;;30.89;35.24;100516.25;4898188;29;20032;-80
2022/08/07 09:04:09;;;;;;;1.35;0.73;;;;;;;31.35;34.00;100534.91;4897877;29;20051;-79
2022/08/07 09:06:43;;;;;;;1.95;0.93;;;;;;;31.27;33.91;100509.31;4897890;29;20032;-80
2022/08/07 09:09:36;;;;;;;2.50;1.10;;;;;;;31.14;33.84;100514.44;4880821;29;20424;-80
2022/08/07 09:12:07;;;;;;;1.58;0.93;;;;;;;31.48;33.89;100523.44;4897635;29;20081;-82
2022/08/07 09:14:39;;;;;;;1.58;0.80;;;;;;;31.52;34.51;100528.41;4880824;29;20037;-81
2022/08/07 09:17:42;;;;;;;1.85;1.20;;;;;;;31.69;34.54;100516.38;4880877;29;20044;-80
2022/08/07 09:20:25;;;;;;;2.40;0.90;;;;;;;31.94;34.28;100520.00;4898105;29;20051;-81
2022/08/07 09:23:12;;;;;;;1.10;0.70;;;;;;;32.01;34.29;100524.63;4884252;29;20307;-81
2022/08/07 09:26:04;;;;;;;2.97;0.90;;;;;;;32.29;33.33;100521.47;4880254;29;20053;-82
2022/08/07 09:28:53;;;;;;;1.67;0.90;;;;;;;32.41;32.82;100517.31;4874944;29;20040;-82
2022/08/07 09:31:37;;;;;;;3.75;1.17;;;;;;;32.65;32.87;100515.38;4875188;29;20059;-80
2022/08/07 09:34:25;;;;;;;1.02;0.70;;;;;;;32.70;32.96;100512.91;4883244;29;20033;-80
2022/08/07 09:37:01;;;;;;;3.13;1.02;;;;;;;32.75;33.24;100502.19;4896400;29;20495;-81
2022/08/07 09:39:45;;;;;;;2.33;0.75;;;;;;;32.72;32.38;100488.78;4896611;29;20064;-82
2022/08/07 09:42:34;;;;;;;4.72;1.48;;;;;;;32.91;32.86;100504.91;4879630;29;20040;-81
2022/08/07 09:45:19;;;;;;;1.67;0.77;;;;;;;33.01;32.56;100505.56;4889460;29;20044;-81
2022/08/07 09:48:18;;;;;;;1.05;0.70;;;;;;;32.58;31.49;100500.56;4861315;29;20043;-80
2022/08/07 09:50:52;;;;;;;4.10;0.90;;;;;;;32.96;32.66;100485.94;4877489;29;20036;-80
2022/08/07 09:53:22;;;;;;;1.75;0.90;;;;;;;32.82;30.86;100486.66;4878304;29;20039;-81
2022/08/07 09:56:14;;;;;;;2.53;0.80;;;;;;;32.70;31.41;100501.88;4892110;29;20096;-80
2022/08/07 09:58:48;;;;;;;1.50;0.73;;;;;;;32.67;32.23;100490.38;4880782;29;20032;-81
2022/08/07 10:01:32;;;;;;;3.05;1.00;;;;;;;32.87;32.06;100492.50;4885162;29;20143;-83
2022/08/07 10:04:20;;;;;;;2.03;0.90;;;;;;;32.98;30.88;100494.84;4902698;29;20107;-82
2022/08/07 10:06:58;;;;;;;1.40;1.00;;;;;;;32.77;31.81;100469.81;4901300;29;20051;-79
2022/08/07 10:09:32;;;;;;;2.00;0.90;;;;;;;33.05;31.86;100479.31;4878072;29;20504;-79
2022/08/07 10:11:58;;;;;;;2.40;1.10;;;;;;;33.18;31.80;100474.03;4880987;29;20114;-80
2022/08/07 10:14:49;;;;;;;2.22;0.95;;;;;;;32.95;31.71;100456.63;4897165;29;20503;-82
2022/08/07 10:17:46;;;;;;;1.83;0.93;;;;;;;33.15;31.15;100452.34;4879284;29;20057;-81
2022/08/07 10:20:48;;;;;;;2.53;0.93;;;;;;;33.30;30.79;100450.53;4878266;29;20039;-81
2022/08/07 10:23:35;;;;;;;1.55;0.80;;;;;;;33.42;31.58;100447.34;4876254;29;20496;-82
2022/08/07 10:26:22;;;;;;;2.83;0.90;;;;;;;33.69;30.51;100439.31;4861226;29;20173;-82
2022/08/07 10:28:57;;;;;;;1.38;0.82;;;;;;;33.71;30.43;100439.16;4884292;29;20043;-80
2022/08/07 10:32:13;;;;;;;1.58;0.80;;;;;;;33.89;31.23;100437.72;4891317;29;20516;-80
2022/08/07 10:35:16;;;;;;;2.25;0.77;;;;;;;34.01;28.92;100435.38;4855836;29;20044;-80
2022/08/07 10:38:22;;;;;;;3.25;0.85;;;;;;;34.00;29.75;100425.41;4878954;29;20061;-82
2022/08/07 10:40:54;;;;;;;2.20;0.60;;;;;;;34.16;29.20;100430.72;4879981;29;20114;-82
2022/08/07 10:43:32;;;;;;;2.85;0.88;;;;;;;34.28;27.95;100418.16;4896673;29;20079;-81
2022/08/07 10:46:01;;;;;;;1.20;0.60;;;;;;;34.28;27.30;100430.03;4895753;29;20043;-82
2022/08/07 10:49:02;;;;;;;1.25;0.50;;;;;;;33.92;26.51;100395.13;4877622;29;20029;-80
2022/08/07 10:51:34;;;;;;;2.15;0.60;;;;;;;34.05;26.16;100417.41;4875352;29;20404;-81
2022/08/07 10:54:14;;;;;;;1.60;0.60;;;;;;;34.10;26.18;100365.22;4871566;29;20039;-80
2022/08/07 10:56:52;;;;;;;1.25;0.90;;;;;;;34.56;26.97;100405.38;4877223;29;20563;-80
2022/08/07 10:59:33;;;;;;;1.00;0.50;;;;;;;34.96;26.26;100403.94;4860784;29;20033;-80
2022/08/07 11:02:05;;;;;;;1.27;0.50;;;;;;;35.11;25.03;100402.81;4875792;29;20052;-81
2022/08/07 11:05:15;;;;;;;2.78;0.60;;;;;;;34.67;25.24;100407.63;4870634;29;20036;-81
2022/08/07 11:07:48;;;;;;;1.08;0.57;;;;;;;34.61;25.14;100402.00;4880060;29;20052;-80
2022/08/07 11:10:42;;;;;;;2.22;0.95;;;;;;;34.85;25.28;100396.09;4879035;29;20056;-82
2022/08/07 11:13:15;;;;;;;1.42;0.70;;;;;;;34.91;25.94;100385.16;4891183;29;20033;-82
2022/08/07 11:15:45;;;;;;;1.85;0.80;;;;;;;34.96;25.77;100390.94;4882263;29;20056;-81
2022/08/07 11:18:20;;;;;;;0.47;0.38;;;;;;;34.93;25.13;100380.28;4876343;29;20128;-81
2022/08/07 11:20:57;;;;;;;3.55;0.60;;;;;;;35.29;25.88;100383.81;4876437;29;20041;-80
2022/08/07 11:23:45;;;;;;;1.58;0.60;;;;;;;35.19;24.84;100375.00;4860992;29;20048;-80
2022/08/07 11:26:30;;;;;;;3.53;0.70;;;;;;;35.07;26.70;100387.69;4860203;29;20025;-79
2022/08/07 11:29:06;;;;;;;3.13;0.70;;;;;;;35.28;25.76;100390.41;4876093;29;20470;-81
2022/08/07 11:31:45;;;;;;;2.22;0.88;;;;;;;35.29;24.97;100358.91;4877673;29;20056;-81
2022/08/07 11:34:38;;;;;;;1.00;0.52;;;;;;;35.31;25.51;100373.41;4879340;29;20040;-80
2022/08/07 11:37:27;;;;;;;1.63;0.70;;;;;;;35.58;24.51;100363.44;4863911;29;20037;-81
2022/08/07 11:39:58;;;;;;;2.58;0.80;;;;;;;35.71;23.83;100381.00;4863460;29;20541;-81
2022/08/07 11:42:24;;;;;;;3.40;0.60;;;;;;;35.63;25.37;100381.16;4881461;29;20049;-81
2022/08/07 11:45:04;;;;;;;1.77;0.70;;;;;;;35.46;24.61;100374.22;4863987;29;20029;-80
2022/08/07 11:47:54;;;;;;;2.05;0.80;;;;;;;35.19;25.91;100379.69;4880844;29;20066;-82
2022/08/07 11:50:23;;;;;;;1.55;0.60;;;;;;;35.35;25.31;100369.19;4863689;29;20412;-81
2022/08/07 11:53:19;;;;;;;1.13;0.60;;;;;;;35.77;25.78;100366.34;4881410;29;20041;-81